createdAt,value
2023-04-02T00:00:27.910Z,79.89
2023-04-02T00:01:27.746Z,80.40
2023-04-02T00:02:28.059Z,80.30
2023-04-02T00:03:27.862Z,80.19
2023-04-02T00:04:27.988Z,80.16
2023-04-02T00:05:27.775Z,80.16
2023-04-02T00:06:27.938Z,80.51
2023-04-02T00:07:27.793Z,81.12
2023-04-02T00:08:27.911Z,80.91
2023-04-02T00:09:27.819Z,81.32
2023-04-02T00:10:27.919Z,81.73
2023-04-02T00:11:27.792Z,81.12
2023-04-02T00:12:27.818Z,81.73
2023-04-02T00:13:27.939Z,81.43
2023-04-02T00:14:27.791Z,81.52
2023-04-02T00:15:27.797Z,81.52
2023-04-02T00:16:27.691Z,81.32
2023-04-02T00:17:27.810Z,81.32
2023-04-02T00:18:27.700Z,81.43
2023-04-02T00:19:27.751Z,81.01
2023-04-02T00:20:27.589Z,81.22
2023-04-02T00:21:27.802Z,81.32
2023-04-02T00:22:26.982Z,81.22
2023-04-02T00:23:27.778Z,81.01
2023-04-02T00:24:27.552Z,81.01
2023-04-02T00:25:27.709Z,81.01
2023-04-02T00:26:27.553Z,80.40
2023-04-02T00:27:27.788Z,80.60
2023-04-02T00:28:27.693Z,80.40
2023-04-02T00:29:27.686Z,80.81
2023-04-02T00:30:27.602Z,80.51
2023-04-02T00:31:27.520Z,80.51
2023-04-02T00:32:27.641Z,80.71
2023-04-02T00:33:27.471Z,80.30
2023-04-02T00:34:27.596Z,80.09
2023-04-02T00:35:27.514Z,79.89
2023-04-02T00:36:27.574Z,79.89
2023-04-02T00:37:27.582Z,80.19
2023-04-02T00:38:27.793Z,80.09
2023-04-02T00:39:27.484Z,79.58
2023-04-02T00:40:27.522Z,79.79
2023-04-02T00:41:27.500Z,79.54
2023-04-02T00:42:27.549Z,79.44
2023-04-02T00:43:27.420Z,79.75
2023-04-02T00:44:27.499Z,79.85
2023-04-02T00:45:27.421Z,80.05
2023-04-02T00:46:27.583Z,80.09
2023-04-02T00:47:27.673Z,80.05
2023-04-02T00:48:27.279Z,79.54
2023-04-02T00:49:27.439Z,79.64
2023-04-02T00:50:27.312Z,79.75
2023-04-02T00:51:27.501Z,80.05
2023-04-02T00:52:27.295Z,80.46
2023-04-02T00:53:27.445Z,80.46
2023-04-02T00:54:27.312Z,80.30
2023-04-02T00:55:27.360Z,80.88
2023-04-02T00:56:27.292Z,80.88
2023-04-02T00:57:27.534Z,80.36
2023-04-02T00:58:27.357Z,80.67
2023-04-02T00:59:27.443Z,80.46
2023-04-02T01:00:27.291Z,80.26
2023-04-02T01:01:27.170Z,80.67
2023-04-02T01:02:27.427Z,80.67
2023-04-02T01:03:27.206Z,80.46
2023-04-02T01:04:27.282Z,80.46
2023-04-02T01:05:27.150Z,80.77
2023-04-02T01:06:27.241Z,80.57
2023-04-02T01:07:27.119Z,80.46
2023-04-02T01:08:27.424Z,80.57
2023-04-02T01:09:27.109Z,80.81
2023-04-02T01:10:27.261Z,80.60
2023-04-02T01:11:27.181Z,80.26
2023-04-02T01:12:27.182Z,80.51
2023-04-02T01:13:27.118Z,80.40
2023-04-02T01:14:27.158Z,80.51
2023-04-02T01:15:27.101Z,80.30
2023-04-02T01:16:27.268Z,80.19
2023-04-02T01:17:27.190Z,80.81
2023-04-02T01:18:26.943Z,80.60
2023-04-02T01:19:27.099Z,80.19
2023-04-02T01:20:26.943Z,80.51
2023-04-02T01:21:27.087Z,80.51
2023-04-02T01:22:26.958Z,80.19
2023-04-02T01:23:27.211Z,80.40
2023-04-02T01:24:26.931Z,80.51
2023-04-02T01:25:27.146Z,80.81
2023-04-02T01:26:26.992Z,81.22
2023-04-02T01:27:27.047Z,81.01
2023-04-02T01:28:27.026Z,80.60
2023-04-02T01:29:27.031Z,80.60
2023-04-02T01:30:26.968Z,80.40
2023-04-02T01:31:26.761Z,80.71
2023-04-02T01:32:27.028Z,80.60
2023-04-02T01:33:26.838Z,81.22
2023-04-02T01:34:26.933Z,81.52
2023-04-02T01:35:26.799Z,81.32
2023-04-02T01:36:26.946Z,81.15
2023-04-02T01:37:26.780Z,81.36
2023-04-02T01:38:26.888Z,81.36
2023-04-02T01:39:26.825Z,80.85
2023-04-02T01:40:26.948Z,80.95
2023-04-02T01:41:26.806Z,81.36
2023-04-02T01:42:26.885Z,81.26
2023-04-02T01:43:26.847Z,81.67
2023-04-02T01:44:26.895Z,81.67
2023-04-02T01:45:26.905Z,81.67
2023-04-02T01:46:26.765Z,81.77
2023-04-02T01:47:26.864Z,81.46
2023-04-02T01:48:26.587Z,81.36
2023-04-02T01:49:26.805Z,81.36
2023-04-02T01:50:26.606Z,81.26
2023-04-02T01:51:26.758Z,81.05
2023-04-02T01:52:26.724Z,80.74
2023-04-02T01:53:26.885Z,80.74
2023-04-02T01:54:26.756Z,80.60
2023-04-02T01:55:26.733Z,81.05
2023-04-02T01:56:26.603Z,81.67
2023-04-02T01:57:26.773Z,81.32
2023-04-02T01:58:26.604Z,81.73
2023-04-02T01:59:26.796Z,82.18
2023-04-02T02:00:26.653Z,82.69
2023-04-02T02:01:26.736Z,82.69
2023-04-02T02:02:26.693Z,82.90
2023-04-02T02:03:26.424Z,82.90
2023-04-02T02:04:26.625Z,83.31
2023-04-02T02:05:26.550Z,83.41
2023-04-02T02:06:26.703Z,83.72
2023-04-02T02:07:26.493Z,84.27
2023-04-02T02:08:26.632Z,84.23
2023-04-02T02:09:26.466Z,84.06
2023-04-02T02:10:26.601Z,84.03
2023-04-02T02:11:26.514Z,84.23
2023-04-02T02:12:26.526Z,84.03
2023-04-02T02:13:26.433Z,84.03
2023-04-02T02:14:26.545Z,84.68
2023-04-02T02:15:26.532Z,84.99
2023-04-02T02:16:26.674Z,85.50
2023-04-02T02:17:26.636Z,85.50
2023-04-02T02:18:26.288Z,85.50
2023-04-02T02:19:26.488Z,85.50
2023-04-02T02:20:26.299Z,85.80
2023-04-02T02:21:26.538Z,86.11
2023-04-02T02:22:26.289Z,86.63
2023-04-02T02:23:26.627Z,86.52
2023-04-02T02:24:26.399Z,86.93
2023-04-02T02:25:27.458Z,86.52
2023-04-02T02:26:26.310Z,86.42
2023-04-02T02:27:26.470Z,86.42
2023-04-02T02:28:26.276Z,86.73
2023-04-02T02:29:26.478Z,87.24
2023-04-02T02:30:26.349Z,87.24
2023-04-02T02:31:26.347Z,87.14
2023-04-02T02:32:26.322Z,87.96
2023-04-02T02:33:26.179Z,88.21
2023-04-02T02:34:26.310Z,89.03
2023-04-02T02:35:26.133Z,88.21
2023-04-02T02:36:26.391Z,87.79
2023-04-02T02:37:26.148Z,88.51
2023-04-02T02:38:27.318Z,88.62
2023-04-02T02:39:26.169Z,88.51
2023-04-02T02:40:26.221Z,88.62
2023-04-02T02:41:26.140Z,88.51
2023-04-02T02:42:26.290Z,88.51
2023-04-02T02:43:26.178Z,88.62
2023-04-02T02:44:26.217Z,88.41
2023-04-02T02:45:26.256Z,88.78
2023-04-02T02:46:26.252Z,88.06
2023-04-02T02:47:26.141Z,87.90
2023-04-02T02:48:26.086Z,88.10
2023-04-02T02:49:26.127Z,88.41
2023-04-02T02:50:26.009Z,88.31
2023-04-02T02:51:26.154Z,88.72
2023-04-02T02:52:26.044Z,88.51
2023-04-02T02:53:26.274Z,88.86
2023-04-02T02:54:26.047Z,89.23
2023-04-02T02:55:26.155Z,88.92
2023-04-02T02:56:26.090Z,89.03
2023-04-02T02:57:26.495Z,88.72
2023-04-02T02:58:25.953Z,89.13
2023-04-02T02:59:27.124Z,89.13
2023-04-02T03:00:26.112Z,89.03
2023-04-02T03:01:26.155Z,89.43
2023-04-02T03:02:26.026Z,89.43
2023-04-02T03:03:25.988Z,89.33
2023-04-02T03:04:25.977Z,88.82
2023-04-02T03:05:25.816Z,89.03
2023-04-02T03:06:26.170Z,89.23
2023-04-02T03:07:25.857Z,89.33
2023-04-02T03:08:26.039Z,89.54
2023-04-02T03:09:25.945Z,89.03
2023-04-02T03:10:25.945Z,88.62
2023-04-02T03:11:25.994Z,89.43
2023-04-02T03:12:25.949Z,89.95
2023-04-02T03:13:25.825Z,89.84
2023-04-02T03:14:25.947Z,90.05
2023-04-02T03:15:25.879Z,90.56
2023-04-02T03:16:25.963Z,89.84
2023-04-02T03:17:25.824Z,89.03
2023-04-02T03:18:25.696Z,88.92
2023-04-02T03:19:25.843Z,89.43
2023-04-02T03:20:25.657Z,89.95
2023-04-02T03:21:25.818Z,90.16
2023-04-02T03:22:25.014Z,90.05
2023-04-02T03:23:25.898Z,90.05
2023-04-02T03:24:25.716Z,90.87
2023-04-02T03:25:25.826Z,90.16
2023-04-02T03:26:25.666Z,90.16
2023-04-02T03:27:25.736Z,90.46
2023-04-02T03:28:25.718Z,90.56
2023-04-02T03:29:25.765Z,90.46
2023-04-02T03:30:25.705Z,90.36
2023-04-02T03:31:25.787Z,89.75
2023-04-02T03:32:25.724Z,89.95
2023-04-02T03:33:25.490Z,90.46
2023-04-02T03:34:25.764Z,90.36
2023-04-02T03:35:25.481Z,90.77
2023-04-02T03:36:25.771Z,90.40
2023-04-02T03:37:25.465Z,90.71
2023-04-02T03:38:25.730Z,90.50
2023-04-02T03:39:25.618Z,90.46
2023-04-02T03:40:25.740Z,90.46
2023-04-02T03:41:25.476Z,89.84
2023-04-02T03:42:25.653Z,90.05
2023-04-02T03:43:25.492Z,89.95
2023-04-02T03:44:25.612Z,90.16
2023-04-02T03:45:25.508Z,90.40
2023-04-02T03:46:25.684Z,90.61
2023-04-02T03:47:25.545Z,90.40
2023-04-02T03:48:25.349Z,90.56
2023-04-02T03:49:25.459Z,90.56
2023-04-02T03:50:25.379Z,89.64
2023-04-02T03:51:25.510Z,90.05
2023-04-02T03:52:25.415Z,90.16
2023-04-02T03:53:25.512Z,90.30
2023-04-02T03:54:25.473Z,90.36
2023-04-02T03:55:25.510Z,90.36
2023-04-02T03:56:25.347Z,90.71
2023-04-02T03:57:25.532Z,90.50
2023-04-02T03:58:25.361Z,90.56
2023-04-02T03:59:25.455Z,90.16
2023-04-02T04:00:25.657Z,90.16
2023-04-02T04:01:25.358Z,89.54
2023-04-02T04:02:25.347Z,89.75
2023-04-02T04:03:25.149Z,90.30
2023-04-02T04:04:25.477Z,90.71
2023-04-02T04:05:25.257Z,90.61
2023-04-02T04:06:25.366Z,90.40
2023-04-02T04:07:25.145Z,91.02
2023-04-02T04:08:25.325Z,91.42
2023-04-02T04:09:25.207Z,90.71
2023-04-02T04:10:25.504Z,90.61
2023-04-02T04:11:25.220Z,90.20
2023-04-02T04:12:25.307Z,90.26
2023-04-02T04:13:25.166Z,90.30
2023-04-02T04:14:25.326Z,89.95
2023-04-02T04:15:25.214Z,89.33
2023-04-02T04:16:25.378Z,89.23
2023-04-02T04:17:25.264Z,89.64
2023-04-02T04:18:25.054Z,89.13
2023-04-02T04:19:25.145Z,89.13
2023-04-02T04:20:25.034Z,89.23
2023-04-02T04:21:25.187Z,89.75
2023-04-02T04:22:25.046Z,89.43
2023-04-02T04:23:25.278Z,89.78
2023-04-02T04:24:24.998Z,90.40
2023-04-02T04:25:25.206Z,90.40
2023-04-02T04:26:26.110Z,90.09
2023-04-02T04:27:25.130Z,90.61
2023-04-02T04:28:25.201Z,90.50
2023-04-02T04:29:25.104Z,90.61
2023-04-02T04:30:25.049Z,90.50
2023-04-02T04:31:25.986Z,90.61
2023-04-02T04:32:25.065Z,90.26
2023-04-02T04:33:24.855Z,90.20
2023-04-02T04:34:25.030Z,90.20
2023-04-02T04:35:25.017Z,90.40
2023-04-02T04:36:25.188Z,90.50
2023-04-02T04:37:24.886Z,90.30
2023-04-02T04:38:25.087Z,90.50
2023-04-02T04:39:24.837Z,90.09
2023-04-02T04:40:25.065Z,90.61
2023-04-02T04:41:24.849Z,91.12
2023-04-02T04:42:24.937Z,90.71
2023-04-02T04:43:24.937Z,90.91
2023-04-02T04:44:25.139Z,91.42
2023-04-02T04:45:24.896Z,91.12
2023-04-02T04:46:25.025Z,91.53
2023-04-02T04:47:24.887Z,91.74
2023-04-02T04:48:24.695Z,91.63
2023-04-02T04:49:24.893Z,91.53
2023-04-02T04:50:24.690Z,91.84
2023-04-02T04:51:24.807Z,91.53
2023-04-02T04:52:24.719Z,91.42
2023-04-02T04:53:24.876Z,90.67
2023-04-02T04:54:24.688Z,90.26
2023-04-02T04:55:24.953Z,90.91
2023-04-02T04:56:24.716Z,90.91
2023-04-02T04:57:24.925Z,90.87
2023-04-02T04:58:24.702Z,90.81
2023-04-02T04:59:25.988Z,91.02
2023-04-02T05:00:24.778Z,91.08
2023-04-02T05:01:24.832Z,90.77
2023-04-02T05:02:24.716Z,90.56
2023-04-02T05:03:24.498Z,90.67
2023-04-02T05:04:24.742Z,90.26
2023-04-02T05:05:24.605Z,90.46
2023-04-02T05:06:24.663Z,90.26
2023-04-02T05:07:24.575Z,90.97
2023-04-02T05:08:24.765Z,90.77
2023-04-02T05:09:24.509Z,90.46
2023-04-02T05:10:24.712Z,90.67
2023-04-02T05:11:24.599Z,90.87
2023-04-02T05:12:24.667Z,90.97
2023-04-02T05:13:24.526Z,91.08
2023-04-02T05:14:24.679Z,91.18
2023-04-02T05:15:24.559Z,90.97
2023-04-02T05:16:24.615Z,91.28
2023-04-02T05:17:24.599Z,91.69
2023-04-02T05:18:24.359Z,91.69
2023-04-02T05:19:24.515Z,91.59
2023-04-02T05:20:24.500Z,91.49
2023-04-02T05:21:24.547Z,91.90
2023-04-02T05:22:24.368Z,91.94
2023-04-02T05:23:24.594Z,92.31
2023-04-02T05:24:24.390Z,92.41
2023-04-02T05:25:24.537Z,92.21
2023-04-02T05:26:24.345Z,92.41
2023-04-02T05:27:24.484Z,92.41
2023-04-02T05:28:24.386Z,92.41
2023-04-02T05:29:24.596Z,92.61
2023-04-02T05:30:24.469Z,92.51
2023-04-02T05:31:24.693Z,92.61
2023-04-02T05:32:24.387Z,92.41
2023-04-02T05:33:24.198Z,92.21
2023-04-02T05:34:24.345Z,92.06
2023-04-02T05:35:24.276Z,91.55
2023-04-02T05:36:24.477Z,92.10
2023-04-02T05:37:24.349Z,92.61
2023-04-02T05:38:24.397Z,93.02
2023-04-02T05:39:24.189Z,93.02
2023-04-02T05:40:24.374Z,92.82
2023-04-02T05:41:24.308Z,92.41
2023-04-02T05:42:24.307Z,92.82
2023-04-02T05:43:24.227Z,92.36
2023-04-02T05:44:24.454Z,92.47
2023-04-02T05:45:24.279Z,91.75
2023-04-02T05:46:24.413Z,91.75
2023-04-02T05:47:24.281Z,91.86
2023-04-02T05:48:23.480Z,91.86
2023-04-02T05:49:24.933Z,92.27
2023-04-02T05:50:24.410Z,91.82
2023-04-02T05:51:24.218Z,91.86
2023-04-02T05:52:24.129Z,92.06
2023-04-02T05:53:24.306Z,92.06
2023-04-02T05:54:24.130Z,92.32
2023-04-02T05:55:24.240Z,91.61
2023-04-02T05:56:24.070Z,91.71
2023-04-02T05:57:39.595Z,91.50
2023-04-02T05:59:24.229Z,91.82
2023-04-02T06:00:25.170Z,91.65
2023-04-02T06:01:24.190Z,92.57
2023-04-02T06:02:24.174Z,92.36
2023-04-02T06:03:24.220Z,92.27
2023-04-02T06:04:24.096Z,92.27
2023-04-02T06:05:24.928Z,92.53
2023-04-02T06:06:24.078Z,92.43
2023-04-02T06:07:25.089Z,91.82
2023-04-02T06:08:24.050Z,91.91
2023-04-02T06:09:23.909Z,92.02
2023-04-02T06:10:24.893Z,92.02
2023-04-02T06:11:23.953Z,92.12
2023-04-02T06:12:24.023Z,92.22
2023-04-02T06:13:23.957Z,91.61
2023-04-02T06:14:24.087Z,91.50
2023-04-02T06:15:24.919Z,91.91
2023-04-02T06:16:24.047Z,91.61
2023-04-02T06:17:24.189Z,90.89
2023-04-02T06:18:23.963Z,91.30
2023-04-02T06:19:23.986Z,91.87
2023-04-02T06:20:24.073Z,91.05
2023-04-02T06:21:23.966Z,91.77
2023-04-02T06:22:23.808Z,92.08
2023-04-02T06:23:24.238Z,91.16
2023-04-02T06:24:23.737Z,90.75
2023-04-02T06:25:24.051Z,90.54
2023-04-02T06:26:23.818Z,90.91
2023-04-02T06:27:24.147Z,91.11
2023-04-02T06:28:23.709Z,90.50
2023-04-02T06:29:23.067Z,90.39
2023-04-02T06:30:23.757Z,90.39
2023-04-02T06:31:23.905Z,91.16
2023-04-02T06:32:24.770Z,91.22
2023-04-02T06:33:23.919Z,90.39
2023-04-02T06:34:23.852Z,89.84
2023-04-02T06:35:23.569Z,89.94
2023-04-02T06:36:23.891Z,90.36
2023-04-02T06:37:23.575Z,89.84
2023-04-02T06:38:23.762Z,90.05
2023-04-02T06:39:23.644Z,89.74
2023-04-02T06:40:22.930Z,89.84
2023-04-02T06:41:24.631Z,90.91
2023-04-02T06:42:23.678Z,90.91
2023-04-02T06:43:23.665Z,90.50
2023-04-02T06:44:23.712Z,91.58
2023-04-02T06:45:23.813Z,91.07
2023-04-02T06:46:23.770Z,90.45
2023-04-02T06:47:23.648Z,91.27
2023-04-02T06:48:23.761Z,90.36
2023-04-02T06:49:23.788Z,90.86
2023-04-02T06:50:23.367Z,91.38
2023-04-02T06:51:23.658Z,90.97
2023-04-02T06:52:23.450Z,90.66
2023-04-02T06:53:23.606Z,90.86
2023-04-02T06:54:23.750Z,91.27
2023-04-02T06:55:23.731Z,91.31
2023-04-02T06:56:23.454Z,91.83
2023-04-02T06:57:23.636Z,91.93
2023-04-02T06:58:23.471Z,92.44
2023-04-02T06:59:23.572Z,92.34
2023-04-02T07:00:23.505Z,92.65
2023-04-02T07:01:23.726Z,92.85
2023-04-02T07:02:23.401Z,92.24
2023-04-02T07:03:23.802Z,92.14
2023-04-02T07:04:23.524Z,92.75
2023-04-02T07:05:23.322Z,92.44
2023-04-02T07:06:23.571Z,92.55
2023-04-02T07:07:23.577Z,92.79
2023-04-02T07:08:23.541Z,93.41
2023-04-02T07:09:23.359Z,93.82
2023-04-02T07:10:23.437Z,94.33
2023-04-02T07:11:23.286Z,94.54
2023-04-02T07:12:23.426Z,95.15
2023-04-02T07:13:23.200Z,94.90
2023-04-02T07:14:23.406Z,94.18
2023-04-02T07:15:23.805Z,94.70
2023-04-02T07:16:23.406Z,94.49
2023-04-02T07:17:23.620Z,94.18
2023-04-02T07:18:23.347Z,94.65
2023-04-02T07:19:23.284Z,93.63
2023-04-02T07:20:23.124Z,94.24
2023-04-02T07:21:23.315Z,93.59
2023-04-02T07:22:23.638Z,94.40
2023-04-02T07:23:23.415Z,94.30
2023-04-02T07:24:23.086Z,93.59
2023-04-02T07:25:23.605Z,93.28
2023-04-02T07:26:23.142Z,93.28
2023-04-02T07:27:23.234Z,94.20
2023-04-02T07:28:23.305Z,93.18
2023-04-02T07:29:23.261Z,93.38
2023-04-02T07:30:23.340Z,93.69
2023-04-02T07:31:23.224Z,93.89
2023-04-02T07:32:23.113Z,93.59
2023-04-02T07:33:23.182Z,93.89
2023-04-02T07:34:23.136Z,94.46
2023-04-02T07:35:22.982Z,94.20
2023-04-02T07:36:23.372Z,94.15
2023-04-02T07:37:23.607Z,94.26
2023-04-02T07:38:23.145Z,94.56
2023-04-02T07:39:22.983Z,94.36
2023-04-02T07:40:23.168Z,94.10
2023-04-02T07:41:22.983Z,94.10
2023-04-02T07:42:23.313Z,94.92
2023-04-02T07:43:22.910Z,94.60
2023-04-02T07:44:23.092Z,94.55
2023-04-02T07:45:23.056Z,95.47
2023-04-02T07:46:23.445Z,95.47
2023-04-02T07:47:22.944Z,96.04
2023-04-02T07:48:23.065Z,95.84
2023-04-02T07:49:23.098Z,95.94
2023-04-02T07:50:22.835Z,95.73
2023-04-02T07:51:23.024Z,95.59
2023-04-02T07:52:22.845Z,95.02
2023-04-02T07:53:22.939Z,95.32
2023-04-02T07:54:22.876Z,95.02
2023-04-02T07:55:22.968Z,95.63
2023-04-02T07:56:22.804Z,95.43
2023-04-02T07:57:23.499Z,95.43
2023-04-02T07:58:23.037Z,95.43
2023-04-02T07:59:22.892Z,95.38
2023-04-02T08:00:22.796Z,95.48
2023-04-02T08:01:22.896Z,94.46
2023-04-02T08:02:22.864Z,94.67
2023-04-02T08:03:22.868Z,95.69
2023-04-02T08:04:23.249Z,95.95
2023-04-02T08:05:22.682Z,95.13
2023-04-02T08:06:22.763Z,95.29
2023-04-02T08:07:22.655Z,94.37
2023-04-02T08:08:22.835Z,94.32
2023-04-02T08:09:22.735Z,94.78
2023-04-02T08:10:22.994Z,94.58
2023-04-02T08:11:22.585Z,94.74
2023-04-02T08:12:22.717Z,95.15
2023-04-02T08:13:22.585Z,92.80
2023-04-02T08:14:22.733Z,92.69
2023-04-02T08:15:22.789Z,92.55
2023-04-02T08:16:22.818Z,92.96
2023-04-02T08:17:22.717Z,92.45
2023-04-02T08:18:22.797Z,92.24
2023-04-02T08:19:22.632Z,92.35
2023-04-02T08:20:22.492Z,91.89
2023-04-02T08:21:22.693Z,91.12
2023-04-02T08:22:22.567Z,91.94
2023-04-02T08:23:22.567Z,91.83
2023-04-02T08:24:22.468Z,92.08
2023-04-02T08:25:22.606Z,92.59
2023-04-02T08:26:22.547Z,93.31
2023-04-02T08:27:22.652Z,93.25
2023-04-02T08:28:22.588Z,93.25
2023-04-02T08:29:22.693Z,93.70
2023-04-02T08:30:22.801Z,94.52
2023-04-02T08:31:22.640Z,93.91
2023-04-02T08:32:22.531Z,94.21
2023-04-02T08:33:22.541Z,92.88
2023-04-02T08:34:22.548Z,91.91
2023-04-02T08:35:22.418Z,92.97
2023-04-02T08:36:22.606Z,92.87
2023-04-02T08:37:21.689Z,93.99
2023-04-02T08:38:22.502Z,94.77
2023-04-02T08:39:22.308Z,93.95
2023-04-02T08:40:21.721Z,94.26
2023-04-02T08:41:22.369Z,94.26
2023-04-02T08:42:22.501Z,93.95
2023-04-02T08:43:23.592Z,92.62
2023-04-02T08:44:22.408Z,92.93
2023-04-02T08:45:25.328Z,92.42
2023-04-02T08:46:22.462Z,92.42
2023-04-02T08:47:22.469Z,91.39
2023-04-02T08:48:22.457Z,91.19
2023-04-02T08:49:22.539Z,91.85
2023-04-02T08:50:23.380Z,92.93
2023-04-02T08:51:21.542Z,91.80
2023-04-02T08:52:22.316Z,91.70
2023-04-02T08:53:22.331Z,92.47
2023-04-02T08:54:22.379Z,92.88
2023-04-02T08:55:22.265Z,91.86
2023-04-02T08:56:22.242Z,92.13
2023-04-02T08:57:22.359Z,91.92
2023-04-02T08:58:22.267Z,92.39
2023-04-02T08:59:22.341Z,90.25
2023-04-02T09:00:22.275Z,89.73
2023-04-02T09:01:22.326Z,89.39
2023-04-02T09:02:22.236Z,90.00
2023-04-02T09:03:22.362Z,89.08
2023-04-02T09:04:22.251Z,89.14
2023-04-02T09:05:22.048Z,90.47
2023-04-02T09:06:22.716Z,90.63
2023-04-02T09:07:22.295Z,89.51
2023-04-02T09:08:22.224Z,88.69
2023-04-02T09:09:22.016Z,88.22
2023-04-02T09:10:22.144Z,88.32
2023-04-02T09:11:22.024Z,87.76
2023-04-02T09:12:22.137Z,89.28
2023-04-02T09:13:22.050Z,89.08
2023-04-02T09:14:22.068Z,88.88
2023-04-02T09:15:22.004Z,89.53
2023-04-02T09:16:22.094Z,90.75
2023-04-02T09:17:22.129Z,90.04
2023-04-02T09:18:22.158Z,90.31
2023-04-02T09:19:22.005Z,90.31
2023-04-02T09:20:22.386Z,90.61
2023-04-02T09:21:21.996Z,89.79
2023-04-02T09:22:21.866Z,90.81
2023-04-02T09:23:22.146Z,88.88
2023-04-02T09:24:21.826Z,90.41
2023-04-02T09:25:21.969Z,90.71
2023-04-02T09:26:21.457Z,90.41
2023-04-02T09:27:22.481Z,91.22
2023-04-02T09:28:21.819Z,90.71
2023-04-02T09:29:21.990Z,90.71
2023-04-02T09:30:21.834Z,90.86
2023-04-02T09:31:21.954Z,91.37
2023-04-02T09:32:21.818Z,91.57
2023-04-02T09:33:21.970Z,92.19
2023-04-02T09:34:21.943Z,92.08
2023-04-02T09:35:26.457Z,91.47
2023-04-02T09:36:21.888Z,92.76
2023-04-02T09:37:21.669Z,93.06
2023-04-02T09:38:22.089Z,93.06
2023-04-02T09:39:21.789Z,93.52
2023-04-02T09:40:22.360Z,92.61
2023-04-02T09:41:21.999Z,91.28
2023-04-02T09:42:22.491Z,91.49
2023-04-02T09:43:21.685Z,90.77
2023-04-02T09:44:21.848Z,91.89
2023-04-02T09:45:21.784Z,92.87
2023-04-02T09:46:21.903Z,90.94
2023-04-02T09:47:21.703Z,90.94
2023-04-02T09:48:21.759Z,92.16
2023-04-02T09:49:21.610Z,92.05
2023-04-02T09:50:21.531Z,90.73
2023-04-02T09:51:21.789Z,90.83
2023-04-02T09:52:21.667Z,91.49
2023-04-02T09:53:21.748Z,91.65
2023-04-02T09:54:21.536Z,92.11
2023-04-02T09:55:21.666Z,91.66
2023-04-02T09:56:21.900Z,91.87
2023-04-02T09:57:21.700Z,90.44
2023-04-02T09:58:21.488Z,89.83
2023-04-02T09:59:21.598Z,90.50
2023-04-02T10:00:41.526Z,89.48
2023-04-02T10:01:21.737Z,89.07
2023-04-02T10:02:21.757Z,89.44
2023-04-02T10:03:21.666Z,90.56
2023-04-02T10:04:21.554Z,90.92
2023-04-02T10:05:30.084Z,88.39
2023-04-02T10:06:21.487Z,88.08
2023-04-02T10:07:21.376Z,86.65
2023-04-02T10:08:21.576Z,87.89
2023-04-02T10:09:21.619Z,86.98
2023-04-02T10:10:21.557Z,84.78
2023-04-02T10:11:21.482Z,86.82
2023-04-02T10:12:21.492Z,86.98
2023-04-02T10:13:21.658Z,86.31
2023-04-02T10:14:21.570Z,86.92
2023-04-02T10:15:21.325Z,87.47
2023-04-02T10:16:21.611Z,86.55
2023-04-02T10:17:21.373Z,86.96
2023-04-02T10:18:21.609Z,87.20
2023-04-02T10:19:21.414Z,86.08
2023-04-02T10:20:21.309Z,86.77
2023-04-02T10:21:21.333Z,87.12
2023-04-02T10:22:21.212Z,88.45
2023-04-02T10:23:21.629Z,89.61
2023-04-02T10:24:21.245Z,89.81
2023-04-02T10:25:20.830Z,89.51
2023-04-02T10:26:21.313Z,89.61
2023-04-02T10:27:21.332Z,89.34
2023-04-02T10:28:21.295Z,89.61
2023-04-02T10:29:21.320Z,87.98
2023-04-02T10:30:21.233Z,88.69
2023-04-02T10:31:21.429Z,88.59
2023-04-02T10:32:21.248Z,88.69
2023-04-02T10:33:21.308Z,88.04
2023-04-02T10:34:21.177Z,87.12
2023-04-02T10:35:21.141Z,86.41
2023-04-02T10:36:21.188Z,85.49
2023-04-02T10:37:21.380Z,84.67
2023-04-02T10:38:21.468Z,82.74
2023-04-02T10:39:21.138Z,84.27
2023-04-02T10:40:21.199Z,84.06
2023-04-02T10:41:21.339Z,84.27
2023-04-02T10:42:21.479Z,83.31
2023-04-02T10:43:21.100Z,83.25
2023-04-02T10:44:21.128Z,84.64
2023-04-02T10:45:21.058Z,84.94
2023-04-02T10:46:23.043Z,84.94
2023-04-02T10:47:20.999Z,84.59
2023-04-02T10:48:21.424Z,84.09
2023-04-02T10:49:21.146Z,84.70
2023-04-02T10:50:20.950Z,84.70
2023-04-02T10:51:21.172Z,83.27
2023-04-02T10:52:20.894Z,85.11
2023-04-02T10:53:21.138Z,83.37
2023-04-02T10:54:20.934Z,82.66
2023-04-02T10:55:21.339Z,83.78
2023-04-02T10:56:20.949Z,84.23
2023-04-02T10:57:21.359Z,83.92
2023-04-02T10:58:21.172Z,85.14
2023-04-02T10:59:20.929Z,84.43
2023-04-02T11:00:20.982Z,83.82
2023-04-02T11:01:21.027Z,84.43
2023-04-02T11:02:20.954Z,84.53
2023-04-02T11:03:21.055Z,84.67
2023-04-02T11:04:20.981Z,85.49
2023-04-02T11:05:21.049Z,86.61
2023-04-02T11:06:21.020Z,86.00
2023-04-02T11:07:20.839Z,85.39
2023-04-02T11:08:20.870Z,85.63
2023-04-02T11:09:20.783Z,86.96
2023-04-02T11:10:21.810Z,88.14
2023-04-02T11:11:20.697Z,87.26
2023-04-02T11:12:20.949Z,86.76
2023-04-02T11:13:20.809Z,83.33
2023-04-02T11:14:20.827Z,84.18
2023-04-02T11:15:20.735Z,86.71
2023-04-02T11:16:21.437Z,89.00
2023-04-02T11:17:20.851Z,89.51
2023-04-02T11:18:20.868Z,91.09
2023-04-02T11:19:20.782Z,90.88
2023-04-02T11:20:20.859Z,92.25
2023-04-02T11:21:20.730Z,92.87
2023-04-02T11:22:20.699Z,91.64
2023-04-02T11:23:20.816Z,91.58
2023-04-02T11:24:20.538Z,91.69
2023-04-02T11:25:20.781Z,91.11
2023-04-02T11:26:20.578Z,90.50
2023-04-02T11:27:20.793Z,91.56
2023-04-02T11:28:20.698Z,91.16
2023-04-02T11:29:20.768Z,92.08
2023-04-02T11:30:20.610Z,92.59
2023-04-02T11:31:20.651Z,92.59
2023-04-02T11:32:21.124Z,92.59
2023-04-02T11:33:26.513Z,93.71
2023-04-02T11:34:20.518Z,93.92
2023-04-02T11:35:20.913Z,94.74
2023-04-02T11:36:20.649Z,97.09
2023-04-02T11:37:20.409Z,97.09
2023-04-02T11:38:20.733Z,97.45
2023-04-02T11:39:20.600Z,95.14
2023-04-02T11:40:20.541Z,98.00
2023-04-02T11:41:20.423Z,98.97
2023-04-02T11:42:20.514Z,99.28
2023-04-02T11:43:20.533Z,99.99
2023-04-02T11:44:20.545Z,99.99
2023-04-02T11:45:21.059Z,99.99
2023-04-02T11:46:20.876Z,99.99
2023-04-02T11:47:20.474Z,99.99
2023-04-02T11:48:20.450Z,99.99
2023-04-02T11:49:20.530Z,99.99
2023-04-02T11:50:20.249Z,99.99
2023-04-02T11:51:21.349Z,99.99
2023-04-02T11:52:20.440Z,99.99
2023-04-02T11:53:20.454Z,99.99
2023-04-02T11:54:20.486Z,99.99
2023-04-02T11:55:20.920Z,99.99
2023-04-02T11:56:20.565Z,99.99
2023-04-02T11:57:21.587Z,99.99
2023-04-02T11:58:20.231Z,99.99
2023-04-02T11:59:20.409Z,99.99
2023-04-02T12:00:20.307Z,99.99
2023-04-02T12:01:20.378Z,99.99
2023-04-02T12:02:20.273Z,99.99
2023-04-02T12:03:20.468Z,99.99
2023-04-02T12:04:20.517Z,99.99
2023-04-02T12:05:20.207Z,99.99
2023-04-02T12:06:20.241Z,99.99
2023-04-02T12:07:20.095Z,99.99
2023-04-02T12:08:20.580Z,99.99
2023-04-02T12:09:20.039Z,99.99
2023-04-02T12:10:20.258Z,99.99
2023-04-02T12:11:20.166Z,99.99
2023-04-02T12:12:20.419Z,99.99
2023-04-02T12:13:20.103Z,99.99
2023-04-02T12:14:20.705Z,99.99
2023-04-02T12:15:20.145Z,99.99
2023-04-02T12:16:20.306Z,99.99
2023-04-02T12:17:20.160Z,99.99
2023-04-02T12:18:20.114Z,99.99
2023-04-02T12:19:20.058Z,99.99
2023-04-02T12:20:19.976Z,99.99
2023-04-02T12:21:20.671Z,99.99
2023-04-02T12:22:19.957Z,99.99
2023-04-02T12:23:20.228Z,99.99
2023-04-02T12:24:20.567Z,99.99
2023-04-02T12:25:20.012Z,99.99
2023-04-02T12:26:21.462Z,99.99
2023-04-02T12:27:19.999Z,99.99
2023-04-02T12:28:19.959Z,99.99
2023-04-02T12:29:20.080Z,99.99
2023-04-02T12:30:20.231Z,99.99
2023-04-02T12:31:20.110Z,99.99
2023-04-02T12:32:19.903Z,99.99
2023-04-02T12:33:20.095Z,99.99
2023-04-02T12:34:19.850Z,99.99
2023-04-02T12:35:19.737Z,99.99
2023-04-02T12:36:19.945Z,99.99
2023-04-02T12:37:19.903Z,99.99
2023-04-02T12:38:19.949Z,99.99
2023-04-02T12:39:19.762Z,99.99
2023-04-02T12:40:19.887Z,99.99
2023-04-02T12:41:19.730Z,99.99
2023-04-02T12:42:19.900Z,99.99
2023-04-02T12:43:19.822Z,99.99
2023-04-02T12:44:19.811Z,99.99
2023-04-02T12:45:19.799Z,99.99
2023-04-02T12:46:19.925Z,99.99
2023-04-02T12:47:19.987Z,99.99
2023-04-02T12:48:20.109Z,99.99
2023-04-02T12:49:19.753Z,99.99
2023-04-02T12:50:19.769Z,99.99
2023-04-02T12:51:19.719Z,99.99
2023-04-02T12:52:19.623Z,99.99
2023-04-02T12:53:19.713Z,99.99